sensor_id;sensor_type;location;lat;lon;timestamp;P1;durP1;ratioP1;P2;durP2;ratioP2
51981;SDS011;37998;53.416;6.730;2023-06-04T00:01:41;10.93;;;3.65;;
51981;SDS011;37998;53.416;6.730;2023-06-04T00:04:10;13.95;;;4.32;;
51981;SDS011;37998;53.416;6.730;2023-06-04T00:06:36;12.40;;;4.53;;
51981;SDS011;37998;53.416;6.730;2023-06-04T00:09:01;13.23;;;5.00;;
51981;SDS011;37998;53.416;6.730;2023-06-04T00:11:27;12.13;;;4.90;;
51981;SDS011;37998;53.416;6.730;2023-06-04T00:13:53;13.32;;;5.70;;
51981;SDS011;37998;53.416;6.730;2023-06-04T00:16:19;13.32;;;5.45;;
51981;SDS011;37998;53.416;6.730;2023-06-04T00:18:46;12.68;;;5.97;;
51981;SDS011;37998;53.416;6.730;2023-06-04T00:21:12;12.32;;;4.90;;
51981;SDS011;37998;53.416;6.730;2023-06-04T00:23:37;15.02;;;4.85;;
51981;SDS011;37998;53.416;6.730;2023-06-04T00:26:03;9.43;;;4.68;;
51981;SDS011;37998;53.416;6.730;2023-06-04T00:28:29;12.82;;;5.03;;
51981;SDS011;37998;53.416;6.730;2023-06-04T00:30:55;10.95;;;4.38;;
51981;SDS011;37998;53.416;6.730;2023-06-04T00:33:21;10.20;;;3.60;;
51981;SDS011;37998;53.416;6.730;2023-06-04T00:35:47;7.65;;;3.83;;
51981;SDS011;37998;53.416;6.730;2023-06-04T00:38:13;11.38;;;4.40;;
51981;SDS011;37998;53.416;6.730;2023-06-04T00:40:39;10.23;;;4.80;;
51981;SDS011;37998;53.416;6.730;2023-06-04T00:43:04;12.68;;;3.60;;
51981;SDS011;37998;53.416;6.730;2023-06-04T00:45:31;10.73;;;5.00;;
51981;SDS011;37998;53.416;6.730;2023-06-04T00:47:57;11.00;;;4.68;;
51981;SDS011;37998;53.416;6.730;2023-06-04T00:50:23;12.00;;;4.63;;
51981;SDS011;37998;53.416;6.730;2023-06-04T00:52:49;8.43;;;4.88;;
51981;SDS011;37998;53.416;6.730;2023-06-04T00:55:16;13.75;;;5.20;;
51981;SDS011;37998;53.416;6.730;2023-06-04T00:57:43;10.02;;;4.30;;
51981;SDS011;37998;53.416;6.730;2023-06-04T01:00:09;9.57;;;5.00;;
51981;SDS011;37998;53.416;6.730;2023-06-04T01:02:37;12.27;;;4.72;;
51981;SDS011;37998;53.416;6.730;2023-06-04T01:07:50;6.78;;;4.35;;
51981;SDS011;37998;53.416;6.730;2023-06-04T01:10:17;6.65;;;4.68;;
51981;SDS011;37998;53.416;6.730;2023-06-04T01:12:43;8.75;;;4.38;;
51981;SDS011;37998;53.416;6.730;2023-06-04T01:15:09;7.95;;;4.13;;
51981;SDS011;37998;53.416;6.730;2023-06-04T01:23:09;7.78;;;4.57;;
51981;SDS011;37998;53.416;6.730;2023-06-04T01:25:40;9.18;;;4.55;;
51981;SDS011;37998;53.416;6.730;2023-06-04T01:28:10;7.13;;;4.32;;
51981;SDS011;37998;53.416;6.730;2023-06-04T01:30:38;7.45;;;4.90;;
51981;SDS011;37998;53.416;6.730;2023-06-04T01:33:09;8.48;;;4.72;;
51981;SDS011;37998;53.416;6.730;2023-06-04T01:35:36;12.07;;;4.75;;
51981;SDS011;37998;53.416;6.730;2023-06-04T01:38:02;9.90;;;4.40;;
51981;SDS011;37998;53.416;6.730;2023-06-04T01:40:29;9.15;;;4.38;;
51981;SDS011;37998;53.416;6.730;2023-06-04T01:42:55;8.60;;;3.85;;
51981;SDS011;37998;53.416;6.730;2023-06-04T01:45:22;10.30;;;3.80;;
51981;SDS011;37998;53.416;6.730;2023-06-04T01:47:48;9.27;;;3.80;;
51981;SDS011;37998;53.416;6.730;2023-06-04T01:50:15;7.20;;;3.92;;
51981;SDS011;37998;53.416;6.730;2023-06-04T01:52:41;9.20;;;4.20;;
51981;SDS011;37998;53.416;6.730;2023-06-04T01:55:08;4.85;;;3.00;;
51981;SDS011;37998;53.416;6.730;2023-06-04T01:57:37;7.10;;;4.43;;
51981;SDS011;37998;53.416;6.730;2023-06-04T02:00:04;10.93;;;3.97;;
51981;SDS011;37998;53.416;6.730;2023-06-04T02:02:38;9.93;;;3.92;;
51981;SDS011;37998;53.416;6.730;2023-06-04T02:05:09;9.65;;;4.03;;
51981;SDS011;37998;53.416;6.730;2023-06-04T02:07:39;8.95;;;4.00;;
51981;SDS011;37998;53.416;6.730;2023-06-04T02:10:14;6.82;;;3.90;;
51981;SDS011;37998;53.416;6.730;2023-06-04T02:12:52;6.28;;;4.28;;
51981;SDS011;37998;53.416;6.730;2023-06-04T02:15:20;9.73;;;5.03;;
51981;SDS011;37998;53.416;6.730;2023-06-04T02:17:49;14.27;;;4.72;;
51981;SDS011;37998;53.416;6.730;2023-06-04T02:20:16;7.82;;;4.68;;
51981;SDS011;37998;53.416;6.730;2023-06-04T02:22:42;11.25;;;4.70;;
51981;SDS011;37998;53.416;6.730;2023-06-04T02:25:08;8.43;;;4.47;;
51981;SDS011;37998;53.416;6.730;2023-06-04T02:27:34;8.63;;;4.50;;
51981;SDS011;37998;53.416;6.730;2023-06-04T02:30:01;9.10;;;4.40;;
51981;SDS011;37998;53.416;6.730;2023-06-04T02:32:27;7.63;;;4.80;;
51981;SDS011;37998;53.416;6.730;2023-06-04T02:34:55;11.70;;;4.28;;
51981;SDS011;37998;53.416;6.730;2023-06-04T02:37:21;11.80;;;4.43;;
51981;SDS011;37998;53.416;6.730;2023-06-04T02:39:47;9.20;;;3.83;;
51981;SDS011;37998;53.416;6.730;2023-06-04T02:42:13;7.15;;;4.50;;
51981;SDS011;37998;53.416;6.730;2023-06-04T02:44:39;5.95;;;4.13;;
51981;SDS011;37998;53.416;6.730;2023-06-04T02:47:05;6.50;;;3.78;;
51981;SDS011;37998;53.416;6.730;2023-06-04T02:49:32;8.13;;;4.20;;
51981;SDS011;37998;53.416;6.730;2023-06-04T02:51:57;12.40;;;4.43;;
51981;SDS011;37998;53.416;6.730;2023-06-04T02:54:23;10.45;;;5.32;;
51981;SDS011;37998;53.416;6.730;2023-06-04T02:56:49;8.60;;;4.93;;
51981;SDS011;37998;53.416;6.730;2023-06-04T02:59:16;9.57;;;5.40;;
51981;SDS011;37998;53.416;6.730;2023-06-04T03:01:43;7.40;;;4.60;;
51981;SDS011;37998;53.416;6.730;2023-06-04T03:04:10;7.90;;;5.18;;
51981;SDS011;37998;53.416;6.730;2023-06-04T03:06:40;10.10;;;5.53;;
51981;SDS011;37998;53.416;6.730;2023-06-04T03:09:11;8.30;;;5.32;;
51981;SDS011;37998;53.416;6.730;2023-06-04T03:11:37;11.68;;;5.25;;
51981;SDS011;37998;53.416;6.730;2023-06-04T03:14:03;12.70;;;6.13;;
51981;SDS011;37998;53.416;6.730;2023-06-04T03:16:29;9.85;;;6.28;;
51981;SDS011;37998;53.416;6.730;2023-06-04T03:18:56;12.07;;;6.43;;
51981;SDS011;37998;53.416;6.730;2023-06-04T03:21:22;10.75;;;6.70;;
51981;SDS011;37998;53.416;6.730;2023-06-04T03:23:50;8.98;;;6.78;;
51981;SDS011;37998;53.416;6.730;2023-06-04T03:26:16;10.10;;;6.80;;
51981;SDS011;37998;53.416;6.730;2023-06-04T03:28:42;12.32;;;7.50;;
51981;SDS011;37998;53.416;6.730;2023-06-04T03:31:11;11.70;;;6.75;;
51981;SDS011;37998;53.416;6.730;2023-06-04T03:33:38;12.50;;;7.00;;
51981;SDS011;37998;53.416;6.730;2023-06-04T03:36:03;13.02;;;7.28;;
51981;SDS011;37998;53.416;6.730;2023-06-04T03:38:30;13.27;;;6.75;;
51981;SDS011;37998;53.416;6.730;2023-06-04T03:40:57;12.70;;;6.82;;
51981;SDS011;37998;53.416;6.730;2023-06-04T03:43:23;10.10;;;6.45;;
51981;SDS011;37998;53.416;6.730;2023-06-04T03:45:53;12.00;;;5.78;;
51981;SDS011;37998;53.416;6.730;2023-06-04T03:48:19;7.38;;;4.90;;
51981;SDS011;37998;53.416;6.730;2023-06-04T03:50:46;10.20;;;5.32;;
51981;SDS011;37998;53.416;6.730;2023-06-04T03:53:14;9.52;;;4.63;;
51981;SDS011;37998;53.416;6.730;2023-06-04T03:55:40;7.85;;;4.90;;
51981;SDS011;37998;53.416;6.730;2023-06-04T03:58:07;13.50;;;4.93;;
51981;SDS011;37998;53.416;6.730;2023-06-04T04:00:39;14.73;;;5.30;;
51981;SDS011;37998;53.416;6.730;2023-06-04T04:03:05;15.15;;;4.63;;
51981;SDS011;37998;53.416;6.730;2023-06-04T04:05:33;9.88;;;4.50;;
51981;SDS011;37998;53.416;6.730;2023-06-04T04:07:59;14.20;;;4.50;;
51981;SDS011;37998;53.416;6.730;2023-06-04T04:10:29;13.52;;;4.13;;
51981;SDS011;37998;53.416;6.730;2023-06-04T04:12:55;12.02;;;3.75;;
51981;SDS011;37998;53.416;6.730;2023-06-04T04:15:23;7.95;;;3.67;;
51981;SDS011;37998;53.416;6.730;2023-06-04T04:17:51;12.45;;;4.28;;
51981;SDS011;37998;53.416;6.730;2023-06-04T04:20:17;9.10;;;3.95;;
51981;SDS011;37998;53.416;6.730;2023-06-04T04:22:49;8.70;;;3.78;;
51981;SDS011;37998;53.416;6.730;2023-06-04T04:25:19;7.28;;;3.45;;
51981;SDS011;37998;53.416;6.730;2023-06-04T04:27:45;11.05;;;4.25;;
51981;SDS011;37998;53.416;6.730;2023-06-04T04:30:12;13.43;;;4.35;;
51981;SDS011;37998;53.416;6.730;2023-06-04T04:32:41;8.75;;;3.45;;
51981;SDS011;37998;53.416;6.730;2023-06-04T04:35:16;9.38;;;3.67;;
51981;SDS011;37998;53.416;6.730;2023-06-04T04:37:45;15.35;;;3.85;;
51981;SDS011;37998;53.416;6.730;2023-06-04T04:40:14;10.52;;;4.28;;
51981;SDS011;37998;53.416;6.730;2023-06-04T04:42:43;10.00;;;3.88;;
51981;SDS011;37998;53.416;6.730;2023-06-04T04:45:11;10.23;;;4.43;;
51981;SDS011;37998;53.416;6.730;2023-06-04T04:47:37;10.32;;;3.50;;
51981;SDS011;37998;53.416;6.730;2023-06-04T04:50:04;9.75;;;3.65;;
51981;SDS011;37998;53.416;6.730;2023-06-04T04:52:30;14.15;;;3.80;;
51981;SDS011;37998;53.416;6.730;2023-06-04T04:54:56;13.65;;;3.25;;
51981;SDS011;37998;53.416;6.730;2023-06-04T04:57:26;9.00;;;3.38;;
51981;SDS011;37998;53.416;6.730;2023-06-04T04:59:53;9.45;;;3.40;;
51981;SDS011;37998;53.416;6.730;2023-06-04T05:02:19;10.02;;;3.42;;
51981;SDS011;37998;53.416;6.730;2023-06-04T05:04:46;10.57;;;3.70;;
51981;SDS011;37998;53.416;6.730;2023-06-04T05:07:14;9.70;;;3.50;;
51981;SDS011;37998;53.416;6.730;2023-06-04T05:09:40;10.35;;;3.47;;
51981;SDS011;37998;53.416;6.730;2023-06-04T05:12:07;8.77;;;3.67;;
51981;SDS011;37998;53.416;6.730;2023-06-04T05:14:33;11.07;;;3.65;;
51981;SDS011;37998;53.416;6.730;2023-06-04T05:17:03;6.60;;;3.28;;
51981;SDS011;37998;53.416;6.730;2023-06-04T05:19:29;9.20;;;3.33;;
51981;SDS011;37998;53.416;6.730;2023-06-04T05:21:58;11.02;;;4.28;;
51981;SDS011;37998;53.416;6.730;2023-06-04T05:24:26;8.48;;;3.53;;
51981;SDS011;37998;53.416;6.730;2023-06-04T05:26:57;15.38;;;4.25;;
51981;SDS011;37998;53.416;6.730;2023-06-04T05:29:24;14.57;;;3.25;;
51981;SDS011;37998;53.416;6.730;2023-06-04T05:31:50;12.20;;;3.47;;
51981;SDS011;37998;53.416;6.730;2023-06-04T05:34:19;7.55;;;3.20;;
51981;SDS011;37998;53.416;6.730;2023-06-04T05:36:47;12.27;;;3.38;;
51981;SDS011;37998;53.416;6.730;2023-06-04T05:39:13;11.73;;;4.22;;
51981;SDS011;37998;53.416;6.730;2023-06-04T05:41:55;7.38;;;2.90;;
51981;SDS011;37998;53.416;6.730;2023-06-04T05:44:21;7.85;;;3.20;;
51981;SDS011;37998;53.416;6.730;2023-06-04T05:46:47;8.63;;;3.15;;
51981;SDS011;37998;53.416;6.730;2023-06-04T05:49:14;10.55;;;3.28;;
51981;SDS011;37998;53.416;6.730;2023-06-04T05:51:40;9.38;;;3.00;;
51981;SDS011;37998;53.416;6.730;2023-06-04T05:54:06;7.18;;;2.80;;
51981;SDS011;37998;53.416;6.730;2023-06-04T05:56:35;8.43;;;2.97;;
51981;SDS011;37998;53.416;6.730;2023-06-04T05:59:01;8.68;;;3.38;;
51981;SDS011;37998;53.416;6.730;2023-06-04T06:01:27;5.93;;;2.85;;
51981;SDS011;37998;53.416;6.730;2023-06-04T06:03:54;7.20;;;2.42;;
51981;SDS011;37998;53.416;6.730;2023-06-04T06:06:22;7.07;;;3.30;;
51981;SDS011;37998;53.416;6.730;2023-06-04T06:08:48;5.53;;;2.30;;
51981;SDS011;37998;53.416;6.730;2023-06-04T06:11:15;4.82;;;2.10;;
51981;SDS011;37998;53.416;6.730;2023-06-04T06:13:41;6.07;;;2.13;;
51981;SDS011;37998;53.416;6.730;2023-06-04T06:16:09;7.10;;;2.40;;
51981;SDS011;37998;53.416;6.730;2023-06-04T06:18:35;5.55;;;2.38;;
51981;SDS011;37998;53.416;6.730;2023-06-04T06:21:01;7.55;;;2.53;;
51981;SDS011;37998;53.416;6.730;2023-06-04T06:23:27;5.65;;;2.70;;
51981;SDS011;37998;53.416;6.730;2023-06-04T06:25:53;4.68;;;2.53;;
51981;SDS011;37998;53.416;6.730;2023-06-04T06:28:23;6.55;;;2.15;;
51981;SDS011;37998;53.416;6.730;2023-06-04T06:30:50;6.07;;;2.45;;
51981;SDS011;37998;53.416;6.730;2023-06-04T06:33:16;5.97;;;2.42;;
51981;SDS011;37998;53.416;6.730;2023-06-04T06:35:42;5.07;;;2.15;;
51981;SDS011;37998;53.416;6.730;2023-06-04T06:38:09;10.48;;;2.67;;
51981;SDS011;37998;53.416;6.730;2023-06-04T06:40:35;7.90;;;2.50;;
51981;SDS011;37998;53.416;6.730;2023-06-04T06:43:01;5.05;;;2.35;;
51981;SDS011;37998;53.416;6.730;2023-06-04T06:45:26;6.47;;;2.97;;
51981;SDS011;37998;53.416;6.730;2023-06-04T06:47:52;5.93;;;2.33;;
51981;SDS011;37998;53.416;6.730;2023-06-04T06:50:18;5.72;;;2.45;;
51981;SDS011;37998;53.416;6.730;2023-06-04T06:52:44;7.03;;;2.53;;
51981;SDS011;37998;53.416;6.730;2023-06-04T06:55:10;6.22;;;2.38;;
51981;SDS011;37998;53.416;6.730;2023-06-04T06:57:36;7.72;;;2.67;;
51981;SDS011;37998;53.416;6.730;2023-06-04T07:00:02;6.60;;;2.15;;
51981;SDS011;37998;53.416;6.730;2023-06-04T07:02:30;4.32;;;2.22;;
51981;SDS011;37998;53.416;6.730;2023-06-04T07:04:56;5.78;;;2.97;;
51981;SDS011;37998;53.416;6.730;2023-06-04T07:07:22;5.45;;;2.40;;
51981;SDS011;37998;53.416;6.730;2023-06-04T07:09:52;4.45;;;2.35;;
51981;SDS011;37998;53.416;6.730;2023-06-04T07:12:18;5.60;;;2.03;;
51981;SDS011;37998;53.416;6.730;2023-06-04T07:14:44;5.22;;;1.80;;
51981;SDS011;37998;53.416;6.730;2023-06-04T07:17:11;3.85;;;2.35;;
51981;SDS011;37998;53.416;6.730;2023-06-04T07:19:36;5.10;;;2.40;;
51981;SDS011;37998;53.416;6.730;2023-06-04T07:22:02;5.82;;;1.98;;
51981;SDS011;37998;53.416;6.730;2023-06-04T07:24:28;3.97;;;1.83;;
51981;SDS011;37998;53.416;6.730;2023-06-04T07:26:54;2.97;;;1.90;;
51981;SDS011;37998;53.416;6.730;2023-06-04T07:29:20;7.60;;;1.98;;
51981;SDS011;37998;53.416;6.730;2023-06-04T07:31:46;5.43;;;2.42;;
51981;SDS011;37998;53.416;6.730;2023-06-04T07:34:12;3.35;;;2.00;;
51981;SDS011;37998;53.416;6.730;2023-06-04T07:36:38;6.75;;;2.20;;
51981;SDS011;37998;53.416;6.730;2023-06-04T07:39:04;3.78;;;1.90;;
51981;SDS011;37998;53.416;6.730;2023-06-04T07:41:34;3.58;;;1.60;;
51981;SDS011;37998;53.416;6.730;2023-06-04T07:43:59;6.63;;;2.13;;
51981;SDS011;37998;53.416;6.730;2023-06-04T07:46:26;3.33;;;2.03;;
51981;SDS011;37998;53.416;6.730;2023-06-04T07:48:52;6.72;;;2.33;;
51981;SDS011;37998;53.416;6.730;2023-06-04T07:51:18;5.35;;;2.20;;
51981;SDS011;37998;53.416;6.730;2023-06-04T07:53:44;5.25;;;2.08;;
51981;SDS011;37998;53.416;6.730;2023-06-04T07:56:10;6.40;;;1.88;;
51981;SDS011;37998;53.416;6.730;2023-06-04T07:58:36;4.47;;;1.80;;
51981;SDS011;37998;53.416;6.730;2023-06-04T08:01:02;5.22;;;1.98;;
51981;SDS011;37998;53.416;6.730;2023-06-04T08:03:28;4.65;;;1.77;;
51981;SDS011;37998;53.416;6.730;2023-06-04T08:05:54;6.90;;;2.20;;
51981;SDS011;37998;53.416;6.730;2023-06-04T08:08:23;3.58;;;1.88;;
51981;SDS011;37998;53.416;6.730;2023-06-04T08:10:49;6.85;;;2.50;;
51981;SDS011;37998;53.416;6.730;2023-06-04T08:13:15;4.65;;;2.03;;
51981;SDS011;37998;53.416;6.730;2023-06-04T08:15:41;4.60;;;1.63;;
51981;SDS011;37998;53.416;6.730;2023-06-04T08:18:27;2.08;;;1.58;;
51981;SDS011;37998;53.416;6.730;2023-06-04T08:21:09;7.75;;;2.00;;
51981;SDS011;37998;53.416;6.730;2023-06-04T08:23:55;5.40;;;2.15;;
51981;SDS011;37998;53.416;6.730;2023-06-04T08:26:42;4.75;;;1.90;;
51981;SDS011;37998;53.416;6.730;2023-06-04T08:29:13;5.90;;;1.95;;
51981;SDS011;37998;53.416;6.730;2023-06-04T08:31:49;3.38;;;1.92;;
51981;SDS011;37998;53.416;6.730;2023-06-04T08:34:24;7.45;;;2.08;;
51981;SDS011;37998;53.416;6.730;2023-06-04T08:36:50;5.30;;;2.10;;
51981;SDS011;37998;53.416;6.730;2023-06-04T08:39:16;6.13;;;2.22;;
51981;SDS011;37998;53.416;6.730;2023-06-04T08:41:48;5.15;;;2.42;;
51981;SDS011;37998;53.416;6.730;2023-06-04T08:44:17;3.15;;;1.90;;
51981;SDS011;37998;53.416;6.730;2023-06-04T08:46:43;6.50;;;2.08;;
51981;SDS011;37998;53.416;6.730;2023-06-04T08:49:11;5.07;;;2.03;;
51981;SDS011;37998;53.416;6.730;2023-06-04T08:51:38;7.03;;;2.47;;
51981;SDS011;37998;53.416;6.730;2023-06-04T08:54:07;4.38;;;1.88;;
51981;SDS011;37998;53.416;6.730;2023-06-04T08:56:34;4.43;;;2.10;;
51981;SDS011;37998;53.416;6.730;2023-06-04T08:59:04;5.22;;;2.00;;
51981;SDS011;37998;53.416;6.730;2023-06-04T09:01:34;11.90;;;3.47;;
51981;SDS011;37998;53.416;6.730;2023-06-04T09:04:05;6.57;;;1.80;;
51981;SDS011;37998;53.416;6.730;2023-06-04T09:06:33;4.60;;;2.13;;
51981;SDS011;37998;53.416;6.730;2023-06-04T09:08:59;5.65;;;2.08;;
51981;SDS011;37998;53.416;6.730;2023-06-04T09:11:36;3.55;;;1.88;;
51981;SDS011;37998;53.416;6.730;2023-06-04T09:14:09;4.13;;;1.80;;
51981;SDS011;37998;53.416;6.730;2023-06-04T09:16:45;5.05;;;2.25;;
51981;SDS011;37998;53.416;6.730;2023-06-04T09:19:16;3.00;;;1.73;;
51981;SDS011;37998;53.416;6.730;2023-06-04T09:21:48;3.45;;;1.88;;
51981;SDS011;37998;53.416;6.730;2023-06-04T09:24:21;3.55;;;2.30;;
51981;SDS011;37998;53.416;6.730;2023-06-04T09:26:51;2.63;;;1.85;;
51981;SDS011;37998;53.416;6.730;2023-06-04T09:29:17;3.38;;;2.17;;
51981;SDS011;37998;53.416;6.730;2023-06-04T09:31:44;6.72;;;2.10;;
51981;SDS011;37998;53.416;6.730;2023-06-04T09:34:12;4.18;;;1.92;;
51981;SDS011;37998;53.416;6.730;2023-06-04T09:36:39;3.95;;;2.05;;
51981;SDS011;37998;53.416;6.730;2023-06-04T09:39:18;5.50;;;2.00;;
51981;SDS011;37998;53.416;6.730;2023-06-04T09:41:44;5.43;;;2.80;;
51981;SDS011;37998;53.416;6.730;2023-06-04T09:44:10;5.40;;;1.90;;
51981;SDS011;37998;53.416;6.730;2023-06-04T09:46:37;6.30;;;2.08;;
51981;SDS011;37998;53.416;6.730;2023-06-04T09:49:04;3.00;;;2.00;;
51981;SDS011;37998;53.416;6.730;2023-06-04T09:51:31;4.93;;;2.20;;
51981;SDS011;37998;53.416;6.730;2023-06-04T09:54:02;3.53;;;2.00;;
51981;SDS011;37998;53.416;6.730;2023-06-04T09:56:29;3.97;;;2.10;;
51981;SDS011;37998;53.416;6.730;2023-06-04T09:58:59;3.65;;;2.00;;
51981;SDS011;37998;53.416;6.730;2023-06-04T10:01:28;3.63;;;1.65;;
51981;SDS011;37998;53.416;6.730;2023-06-04T10:03:55;4.68;;;1.98;;
51981;SDS011;37998;53.416;6.730;2023-06-04T10:06:27;4.77;;;2.10;;
51981;SDS011;37998;53.416;6.730;2023-06-04T10:08:59;4.88;;;2.40;;
51981;SDS011;37998;53.416;6.730;2023-06-04T10:11:43;5.85;;;3.03;;
51981;SDS011;37998;53.416;6.730;2023-06-04T10:14:18;5.15;;;1.98;;
51981;SDS011;37998;53.416;6.730;2023-06-04T10:16:48;3.75;;;2.22;;
51981;SDS011;37998;53.416;6.730;2023-06-04T10:19:16;5.93;;;2.20;;
51981;SDS011;37998;53.416;6.730;2023-06-04T10:21:43;6.53;;;2.47;;
51981;SDS011;37998;53.416;6.730;2023-06-04T10:24:09;6.00;;;2.20;;
51981;SDS011;37998;53.416;6.730;2023-06-04T10:26:37;3.72;;;2.05;;
51981;SDS011;37998;53.416;6.730;2023-06-04T10:29:05;5.90;;;2.30;;
51981;SDS011;37998;53.416;6.730;2023-06-04T10:31:32;6.38;;;1.63;;
51981;SDS011;37998;53.416;6.730;2023-06-04T10:33:58;3.95;;;2.00;;
51981;SDS011;37998;53.416;6.730;2023-06-04T10:36:24;6.50;;;2.35;;
51981;SDS011;37998;53.416;6.730;2023-06-04T10:38:51;3.80;;;2.28;;
51981;SDS011;37998;53.416;6.730;2023-06-04T10:41:19;5.30;;;2.40;;
51981;SDS011;37998;53.416;6.730;2023-06-04T10:43:47;5.50;;;1.92;;
51981;SDS011;37998;53.416;6.730;2023-06-04T10:46:17;2.38;;;1.77;;
51981;SDS011;37998;53.416;6.730;2023-06-04T10:48:48;5.75;;;2.22;;
51981;SDS011;37998;53.416;6.730;2023-06-04T10:51:31;3.25;;;1.67;;
51981;SDS011;37998;53.416;6.730;2023-06-04T10:54:02;3.20;;;2.00;;
51981;SDS011;37998;53.416;6.730;2023-06-04T10:56:28;6.13;;;2.38;;
51981;SDS011;37998;53.416;6.730;2023-06-04T10:59:15;4.15;;;2.00;;
51981;SDS011;37998;53.416;6.730;2023-06-04T11:01:42;3.30;;;1.95;;
51981;SDS011;37998;53.416;6.730;2023-06-04T11:04:21;5.97;;;2.10;;
51981;SDS011;37998;53.416;6.730;2023-06-04T11:06:48;3.50;;;1.90;;
51981;SDS011;37998;53.416;6.730;2023-06-04T11:09:49;5.25;;;2.40;;
51981;SDS011;37998;53.416;6.730;2023-06-04T11:12:15;5.35;;;2.28;;
51981;SDS011;37998;53.416;6.730;2023-06-04T11:14:53;5.50;;;1.98;;
51981;SDS011;37998;53.416;6.730;2023-06-04T11:17:20;5.80;;;2.35;;
51981;SDS011;37998;53.416;6.730;2023-06-04T11:19:46;3.92;;;1.95;;
51981;SDS011;37998;53.416;6.730;2023-06-04T11:22:15;4.45;;;1.92;;
51981;SDS011;37998;53.416;6.730;2023-06-04T11:24:41;5.47;;;2.33;;
51981;SDS011;37998;53.416;6.730;2023-06-04T11:27:07;10.88;;;2.58;;
51981;SDS011;37998;53.416;6.730;2023-06-04T11:29:33;4.93;;;2.30;;
51981;SDS011;37998;53.416;6.730;2023-06-04T11:31:59;3.40;;;1.77;;
51981;SDS011;37998;53.416;6.730;2023-06-04T11:34:29;3.90;;;2.03;;
51981;SDS011;37998;53.416;6.730;2023-06-04T11:37:07;6.30;;;2.20;;
51981;SDS011;37998;53.416;6.730;2023-06-04T11:39:36;4.60;;;2.30;;
51981;SDS011;37998;53.416;6.730;2023-06-04T11:42:05;3.80;;;2.17;;
51981;SDS011;37998;53.416;6.730;2023-06-04T11:44:32;3.95;;;2.35;;
51981;SDS011;37998;53.416;6.730;2023-06-04T11:46:59;8.45;;;2.55;;
51981;SDS011;37998;53.416;6.730;2023-06-04T11:49:25;5.85;;;2.28;;
51981;SDS011;37998;53.416;6.730;2023-06-04T11:51:52;5.03;;;2.30;;
51981;SDS011;37998;53.416;6.730;2023-06-04T11:54:21;8.93;;;2.30;;
51981;SDS011;37998;53.416;6.730;2023-06-04T11:56:48;3.47;;;2.08;;
51981;SDS011;37998;53.416;6.730;2023-06-04T11:59:16;4.63;;;2.10;;
51981;SDS011;37998;53.416;6.730;2023-06-04T12:01:44;7.82;;;2.30;;
51981;SDS011;37998;53.416;6.730;2023-06-04T12:06:57;6.22;;;2.40;;
51981;SDS011;37998;53.416;6.730;2023-06-04T12:09:31;5.40;;;2.30;;
51981;SDS011;37998;53.416;6.730;2023-06-04T12:12:06;4.10;;;2.03;;
51981;SDS011;37998;53.416;6.730;2023-06-04T12:14:33;3.75;;;2.15;;
51981;SDS011;37998;53.416;6.730;2023-06-04T12:17:00;3.63;;;2.10;;
51981;SDS011;37998;53.416;6.730;2023-06-04T12:19:30;4.95;;;1.98;;
51981;SDS011;37998;53.416;6.730;2023-06-04T12:22:00;4.10;;;2.20;;
51981;SDS011;37998;53.416;6.730;2023-06-04T12:24:28;3.13;;;2.30;;
51981;SDS011;37998;53.416;6.730;2023-06-04T12:27:04;7.55;;;2.50;;
51981;SDS011;37998;53.416;6.730;2023-06-04T12:29:32;6.03;;;2.67;;
51981;SDS011;37998;53.416;6.730;2023-06-04T12:32:02;4.05;;;2.10;;
51981;SDS011;37998;53.416;6.730;2023-06-04T12:34:39;3.28;;;1.95;;
51981;SDS011;37998;53.416;6.730;2023-06-04T12:37:06;5.38;;;2.65;;
51981;SDS011;37998;53.416;6.730;2023-06-04T12:39:33;6.50;;;2.42;;
51981;SDS011;37998;53.416;6.730;2023-06-04T12:42:07;6.80;;;2.30;;
51981;SDS011;37998;53.416;6.730;2023-06-04T12:44:38;4.30;;;2.40;;
51981;SDS011;37998;53.416;6.730;2023-06-04T12:47:05;4.15;;;2.20;;
51981;SDS011;37998;53.416;6.730;2023-06-04T12:49:32;5.32;;;2.33;;
51981;SDS011;37998;53.416;6.730;2023-06-04T12:51:58;7.07;;;2.17;;
51981;SDS011;37998;53.416;6.730;2023-06-04T12:54:25;4.68;;;2.45;;
51981;SDS011;37998;53.416;6.730;2023-06-04T12:56:54;5.53;;;2.17;;
51981;SDS011;37998;53.416;6.730;2023-06-04T12:59:22;3.67;;;2.03;;
51981;SDS011;37998;53.416;6.730;2023-06-04T13:01:49;5.03;;;2.35;;
51981;SDS011;37998;53.416;6.730;2023-06-04T13:04:15;6.25;;;2.17;;
51981;SDS011;37998;53.416;6.730;2023-06-04T13:06:41;6.43;;;1.95;;
51981;SDS011;37998;53.416;6.730;2023-06-04T13:09:07;5.97;;;2.08;;
51981;SDS011;37998;53.416;6.730;2023-06-04T13:11:39;4.75;;;1.67;;
51981;SDS011;37998;53.416;6.730;2023-06-04T13:14:07;4.10;;;1.90;;
51981;SDS011;37998;53.416;6.730;2023-06-04T13:16:34;3.42;;;1.90;;
51981;SDS011;37998;53.416;6.730;2023-06-04T13:19:01;3.08;;;1.55;;
51981;SDS011;37998;53.416;6.730;2023-06-04T13:21:28;8.57;;;2.53;;
51981;SDS011;37998;53.416;6.730;2023-06-04T13:23:54;7.78;;;1.83;;
51981;SDS011;37998;53.416;6.730;2023-06-04T13:26:21;3.47;;;1.85;;
51981;SDS011;37998;53.416;6.730;2023-06-04T13:28:47;5.78;;;2.40;;
51981;SDS011;37998;53.416;6.730;2023-06-04T13:31:13;3.25;;;1.75;;
51981;SDS011;37998;53.416;6.730;2023-06-04T13:33:39;4.93;;;1.52;;
51981;SDS011;37998;53.416;6.730;2023-06-04T13:36:06;2.53;;;1.63;;
51981;SDS011;37998;53.416;6.730;2023-06-04T13:38:32;4.10;;;1.80;;
51981;SDS011;37998;53.416;6.730;2023-06-04T13:40:58;4.00;;;2.20;;
51981;SDS011;37998;53.416;6.730;2023-06-04T13:43:24;5.90;;;2.50;;
51981;SDS011;37998;53.416;6.730;2023-06-04T13:45:50;5.53;;;2.25;;
51981;SDS011;37998;53.416;6.730;2023-06-04T13:48:16;5.50;;;2.00;;
51981;SDS011;37998;53.416;6.730;2023-06-04T13:50:42;6.50;;;2.17;;
51981;SDS011;37998;53.416;6.730;2023-06-04T13:53:09;4.43;;;2.38;;
51981;SDS011;37998;53.416;6.730;2023-06-04T13:55:38;7.75;;;2.20;;
51981;SDS011;37998;53.416;6.730;2023-06-04T13:58:07;9.17;;;2.23;;
51981;SDS011;37998;53.416;6.730;2023-06-04T14:00:33;3.85;;;1.95;;
51981;SDS011;37998;53.416;6.730;2023-06-04T14:02:59;4.78;;;2.33;;
51981;SDS011;37998;53.416;6.730;2023-06-04T14:05:25;4.13;;;2.22;;
51981;SDS011;37998;53.416;6.730;2023-06-04T14:07:54;7.07;;;2.22;;
51981;SDS011;37998;53.416;6.730;2023-06-04T14:10:20;5.68;;;2.30;;
51981;SDS011;37998;53.416;6.730;2023-06-04T14:12:46;2.80;;;1.80;;
51981;SDS011;37998;53.416;6.730;2023-06-04T14:15:12;4.90;;;2.28;;
51981;SDS011;37998;53.416;6.730;2023-06-04T14:17:38;5.85;;;2.88;;
51981;SDS011;37998;53.416;6.730;2023-06-04T14:20:04;4.50;;;2.35;;
51981;SDS011;37998;53.416;6.730;2023-06-04T14:22:35;6.57;;;2.20;;
51981;SDS011;37998;53.416;6.730;2023-06-04T14:25:05;3.58;;;2.15;;
51981;SDS011;37998;53.416;6.730;2023-06-04T14:27:35;4.75;;;2.25;;
51981;SDS011;37998;53.416;6.730;2023-06-04T14:30:01;4.28;;;2.33;;
51981;SDS011;37998;53.416;6.730;2023-06-04T14:32:28;3.45;;;2.00;;
51981;SDS011;37998;53.416;6.730;2023-06-04T14:34:53;5.90;;;2.20;;
51981;SDS011;37998;53.416;6.730;2023-06-04T14:37:20;6.85;;;2.50;;
51981;SDS011;37998;53.416;6.730;2023-06-04T14:39:47;5.75;;;1.83;;
51981;SDS011;37998;53.416;6.730;2023-06-04T14:42:13;6.57;;;2.20;;
51981;SDS011;37998;53.416;6.730;2023-06-04T14:44:39;5.13;;;2.35;;
51981;SDS011;37998;53.416;6.730;2023-06-04T14:47:05;4.88;;;1.90;;
51981;SDS011;37998;53.416;6.730;2023-06-04T14:49:31;5.72;;;2.05;;
51981;SDS011;37998;53.416;6.730;2023-06-04T14:51:57;4.10;;;1.92;;
51981;SDS011;37998;53.416;6.730;2023-06-04T14:54:23;4.70;;;2.15;;
51981;SDS011;37998;53.416;6.730;2023-06-04T14:56:49;7.40;;;2.42;;
51981;SDS011;37998;53.416;6.730;2023-06-04T14:59:14;7.30;;;2.65;;
51981;SDS011;37998;53.416;6.730;2023-06-04T15:01:41;4.95;;;2.13;;